Terminal Aerodrome Forecast
Issued by NWS Twin Cities, MN

Home | Current Version | Previous Version | Text Only | Print | Product List | Glossary Off
Versions: 1 2 3 4 5 6 7 8 9 10 11 12 13 14 15 16 17 18 19

700
FTUS43 KMPX 201121
TAFSTC
TAF
KSTC 201121Z 2012/2112 13006KT 1SM -DZ BR OVC003
     FM201800 13005KT 4SM BR OVC005
     FM210000 11004KT 3SM -DZ OVC003
     FM210500 13004KT 1/2SM -DZ FG OVC002=

USA.gov is the U.S. government's official web portal to all federal, state and local government web resources and services.